sensor_id;sensor_type;location;lat;lon;timestamp;pressure;altitude;pressure_sealevel;temperature;humidity
36258;BME280;22294;52.044;4.582;2022-12-07T00:03:45;77855.22;;;-144.37;100.00
36258;BME280;22294;52.044;4.582;2022-12-07T00:06:12;77863.38;;;-144.37;100.00
36258;BME280;22294;52.044;4.582;2022-12-07T00:08:38;77863.38;;;-144.37;100.00
36258;BME280;22294;52.044;4.582;2022-12-07T00:11:05;77853.16;;;-144.37;100.00
36258;BME280;22294;52.044;4.582;2022-12-07T00:13:32;77814.28;;;-144.37;100.00
36258;BME280;22294;52.044;4.582;2022-12-07T00:16:06;77789.72;;;-144.37;100.00
36258;BME280;22294;52.044;4.582;2022-12-07T00:18:32;77771.31;;;-144.37;100.00
36258;BME280;22294;52.044;4.582;2022-12-07T00:21:06;77775.41;;;-144.37;100.00
36258;BME280;22294;52.044;4.582;2022-12-07T00:23:33;77775.41;;;-144.37;100.00
36258;BME280;22294;52.044;4.582;2022-12-07T00:26:09;77779.50;;;-144.37;100.00
36258;BME280;22294;52.044;4.582;2022-12-07T00:28:35;77793.81;;;-144.37;100.00
36258;BME280;22294;52.044;4.582;2022-12-07T00:31:06;77802.00;;;-144.37;100.00
36258;BME280;22294;52.044;4.582;2022-12-07T00:33:33;77816.34;;;-144.37;100.00
36258;BME280;22294;52.044;4.582;2022-12-07T00:35:59;77814.28;;;-144.37;100.00
36258;BME280;22294;52.044;4.582;2022-12-07T00:38:28;77797.91;;;-144.37;100.00
36258;BME280;22294;52.044;4.582;2022-12-07T00:40:58;77795.88;;;-144.37;100.00
36258;BME280;22294;52.044;4.582;2022-12-07T00:43:23;77791.78;;;-144.37;100.00
36258;BME280;22294;52.044;4.582;2022-12-07T00:45:49;77789.72;;;-144.37;100.00
36258;BME280;22294;52.044;4.582;2022-12-07T00:48:14;77787.69;;;-144.37;100.00
36258;BME280;22294;52.044;4.582;2022-12-07T00:50:39;77789.72;;;-144.37;100.00
36258;BME280;22294;52.044;4.582;2022-12-07T00:53:05;77793.81;;;-144.37;100.00
36258;BME280;22294;52.044;4.582;2022-12-07T00:55:34;77810.19;;;-144.37;100.00
36258;BME280;22294;52.044;4.582;2022-12-07T00:57:59;77806.09;;;-144.37;100.00
36258;BME280;22294;52.044;4.582;2022-12-07T01:00:24;77793.81;;;-144.37;100.00
36258;BME280;22294;52.044;4.582;2022-12-07T01:02:50;77789.72;;;-144.37;100.00
36258;BME280;22294;52.044;4.582;2022-12-07T01:05:15;77787.69;;;-144.37;100.00
36258;BME280;22294;52.044;4.582;2022-12-07T01:07:40;77783.59;;;-144.37;100.00
36258;BME280;22294;52.044;4.582;2022-12-07T01:10:06;77769.28;;;-144.37;100.00
36258;BME280;22294;52.044;4.582;2022-12-07T01:12:32;77759.03;;;-144.37;100.00
36258;BME280;22294;52.044;4.582;2022-12-07T01:14:57;77748.81;;;-144.37;100.00
36258;BME280;22294;52.044;4.582;2022-12-07T01:17:22;77746.78;;;-144.37;100.00
36258;BME280;22294;52.044;4.582;2022-12-07T01:19:47;77738.59;;;-144.37;100.00
36258;BME280;22294;52.044;4.582;2022-12-07T01:22:13;77734.50;;;-144.37;100.00
36258;BME280;22294;52.044;4.582;2022-12-07T01:24:38;77736.53;;;-144.37;100.00
36258;BME280;22294;52.044;4.582;2022-12-07T01:27:03;77738.59;;;-144.37;100.00
36258;BME280;22294;52.044;4.582;2022-12-07T01:29:28;77744.72;;;-144.37;100.00
36258;BME280;22294;52.044;4.582;2022-12-07T01:31:54;77750.88;;;-144.37;100.00
36258;BME280;22294;52.044;4.582;2022-12-07T01:34:19;77759.03;;;-144.37;100.00
36258;BME280;22294;52.044;4.582;2022-12-07T01:36:44;77752.91;;;-144.37;100.00
36258;BME280;22294;52.044;4.582;2022-12-07T01:39:10;77765.19;;;-144.37;100.00
36258;BME280;22294;52.044;4.582;2022-12-07T01:41:38;77771.31;;;-144.37;100.00
36258;BME280;22294;52.044;4.582;2022-12-07T01:44:25;77777.47;;;-144.37;100.00
36258;BME280;22294;52.044;4.582;2022-12-07T01:46:53;77791.78;;;-144.37;100.00
36258;BME280;22294;52.044;4.582;2022-12-07T01:51:57;77818.38;;;-144.37;100.00
36258;BME280;22294;52.044;4.582;2022-12-07T01:54:24;77826.56;;;-144.37;100.00
36258;BME280;22294;52.044;4.582;2022-12-07T01:56:53;77826.56;;;-144.37;100.00
36258;BME280;22294;52.044;4.582;2022-12-07T01:59:21;77826.56;;;-144.37;100.00
36258;BME280;22294;52.044;4.582;2022-12-07T02:01:47;77814.28;;;-144.37;100.00
36258;BME280;22294;52.044;4.582;2022-12-07T02:04:13;77816.34;;;-144.37;100.00
36258;BME280;22294;52.044;4.582;2022-12-07T02:06:39;77826.56;;;-144.37;100.00
36258;BME280;22294;52.044;4.582;2022-12-07T02:09:07;77834.75;;;-144.37;100.00
36258;BME280;22294;52.044;4.582;2022-12-07T02:11:32;77844.97;;;-144.37;100.00
36258;BME280;22294;52.044;4.582;2022-12-07T02:13:57;77851.13;;;-144.37;100.00
36258;BME280;22294;52.044;4.582;2022-12-07T02:25:08;77875.66;;;-144.37;100.00
36258;BME280;22294;52.044;4.582;2022-12-07T02:27:53;77879.75;;;-144.37;100.00
36258;BME280;22294;52.044;4.582;2022-12-07T02:30:21;77875.66;;;-144.37;100.00
36258;BME280;22294;52.044;4.582;2022-12-07T02:32:56;77883.84;;;-144.37;100.00
36258;BME280;22294;52.044;4.582;2022-12-07T02:38:16;77865.44;;;-144.37;100.00
36258;BME280;22294;52.044;4.582;2022-12-07T02:40:55;77859.31;;;-144.37;100.00
36258;BME280;22294;52.044;4.582;2022-12-07T02:43:30;77849.06;;;-144.37;100.00
36258;BME280;22294;52.044;4.582;2022-12-07T02:46:01;77849.06;;;-144.37;100.00
36258;BME280;22294;52.044;4.582;2022-12-07T02:51:31;77830.66;;;-144.37;100.00
36258;BME280;22294;52.044;4.582;2022-12-07T02:53:57;77816.34;;;-144.37;100.00
36258;BME280;22294;52.044;4.582;2022-12-07T02:57:07;77812.25;;;-144.37;100.00
36258;BME280;22294;52.044;4.582;2022-12-07T03:02:58;77791.78;;;-144.37;100.00
36258;BME280;22294;52.044;4.582;2022-12-07T03:10:57;77806.09;;;-144.37;100.00
36258;BME280;22294;52.044;4.582;2022-12-07T03:18:31;77799.97;;;-144.37;100.00
36258;BME280;22294;52.044;4.582;2022-12-07T03:21:02;77797.91;;;-144.37;100.00
36258;BME280;22294;52.044;4.582;2022-12-07T03:23:31;77795.88;;;-144.37;100.00
36258;BME280;22294;52.044;4.582;2022-12-07T03:26:00;77795.88;;;-144.37;100.00
36258;BME280;22294;52.044;4.582;2022-12-07T03:28:31;77787.69;;;-144.37;100.00
36258;BME280;22294;52.044;4.582;2022-12-07T03:31:17;77789.72;;;-144.37;100.00
36258;BME280;22294;52.044;4.582;2022-12-07T03:33:51;77777.47;;;-144.37;100.00
36258;BME280;22294;52.044;4.582;2022-12-07T03:36:30;77775.41;;;-144.37;100.00
36258;BME280;22294;52.044;4.582;2022-12-07T03:41:37;77765.19;;;-144.37;100.00
36258;BME280;22294;52.044;4.582;2022-12-07T03:44:05;77773.38;;;-144.37;100.00
36258;BME280;22294;52.044;4.582;2022-12-07T03:52:17;77799.97;;;-144.37;100.00
36258;BME280;22294;52.044;4.582;2022-12-07T03:54:56;77808.16;;;-144.37;100.00
36258;BME280;22294;52.044;4.582;2022-12-07T03:57:25;77820.44;;;-144.37;100.00
36258;BME280;22294;52.044;4.582;2022-12-07T03:59:54;77822.47;;;-144.37;100.00
36258;BME280;22294;52.044;4.582;2022-12-07T04:02:20;77832.69;;;-144.37;100.00
36258;BME280;22294;52.044;4.582;2022-12-07T04:04:45;77838.84;;;-144.37;100.00
36258;BME280;22294;52.044;4.582;2022-12-07T04:07:11;77847.03;;;-144.37;100.00
36258;BME280;22294;52.044;4.582;2022-12-07T04:09:38;77857.25;;;-144.37;100.00
36258;BME280;22294;52.044;4.582;2022-12-07T04:12:03;77861.34;;;-144.37;100.00
36258;BME280;22294;52.044;4.582;2022-12-07T04:14:28;77869.53;;;-144.37;100.00
36258;BME280;22294;52.044;4.582;2022-12-07T04:16:56;77879.75;;;-144.37;100.00
36258;BME280;22294;52.044;4.582;2022-12-07T04:19:27;77885.91;;;-144.37;100.00
36258;BME280;22294;52.044;4.582;2022-12-07T04:21:53;77894.09;;;-144.37;100.00
36258;BME280;22294;52.044;4.582;2022-12-07T04:24:19;77890.00;;;-144.37;100.00
36258;BME280;22294;52.044;4.582;2022-12-07T04:26:46;77883.84;;;-144.37;100.00
36258;BME280;22294;52.044;4.582;2022-12-07T04:29:12;77865.44;;;-144.37;100.00
36258;BME280;22294;52.044;4.582;2022-12-07T04:31:39;77836.78;;;-144.37;100.00
36258;BME280;22294;52.044;4.582;2022-12-07T04:34:05;77818.38;;;-144.37;100.00
36258;BME280;22294;52.044;4.582;2022-12-07T04:36:31;77810.19;;;-144.37;100.00
36258;BME280;22294;52.044;4.582;2022-12-07T04:38:56;77795.88;;;-144.37;100.00
36258;BME280;22294;52.044;4.582;2022-12-07T04:41:22;77799.97;;;-144.37;100.00
36258;BME280;22294;52.044;4.582;2022-12-07T04:44:02;77791.78;;;-144.37;100.00
36258;BME280;22294;52.044;4.582;2022-12-07T04:46:30;77791.78;;;-144.37;100.00
36258;BME280;22294;52.044;4.582;2022-12-07T04:48:56;77779.50;;;-144.37;100.00
36258;BME280;22294;52.044;4.582;2022-12-07T04:51:24;77783.59;;;-144.37;100.00
36258;BME280;22294;52.044;4.582;2022-12-07T04:53:50;77781.56;;;-144.37;100.00
36258;BME280;22294;52.044;4.582;2022-12-07T04:56:17;77771.31;;;-144.37;100.00
36258;BME280;22294;52.044;4.582;2022-12-07T04:58:43;77765.19;;;-144.37;100.00
36258;BME280;22294;52.044;4.582;2022-12-07T05:01:09;77771.31;;;-144.37;100.00
36258;BME280;22294;52.044;4.582;2022-12-07T05:03:37;77781.56;;;-144.37;100.00
36258;BME280;22294;52.044;4.582;2022-12-07T05:06:03;77791.78;;;-144.37;100.00
36258;BME280;22294;52.044;4.582;2022-12-07T05:08:29;77799.97;;;-144.37;100.00
36258;BME280;22294;52.044;4.582;2022-12-07T05:10:55;77818.38;;;-144.37;100.00
36258;BME280;22294;52.044;4.582;2022-12-07T05:13:20;77820.44;;;-144.37;100.00
36258;BME280;22294;52.044;4.582;2022-12-07T05:15:47;77818.38;;;-144.37;100.00
36258;BME280;22294;52.044;4.582;2022-12-07T05:18:12;77826.56;;;-144.37;100.00
36258;BME280;22294;52.044;4.582;2022-12-07T05:20:39;77826.56;;;-144.37;100.00
36258;BME280;22294;52.044;4.582;2022-12-07T05:23:04;77834.75;;;-144.37;100.00
36258;BME280;22294;52.044;4.582;2022-12-07T05:25:30;77836.78;;;-144.37;100.00
36258;BME280;22294;52.044;4.582;2022-12-07T05:27:56;77849.06;;;-144.37;100.00
36258;BME280;22294;52.044;4.582;2022-12-07T05:30:22;77855.22;;;-144.37;100.00
36258;BME280;22294;52.044;4.582;2022-12-07T05:32:47;77869.53;;;-144.37;100.00
36258;BME280;22294;52.044;4.582;2022-12-07T05:35:13;77877.72;;;-144.37;100.00
36258;BME280;22294;52.044;4.582;2022-12-07T05:37:38;77881.81;;;-144.37;100.00
36258;BME280;22294;52.044;4.582;2022-12-07T05:40:05;77885.91;;;-144.37;100.00
36258;BME280;22294;52.044;4.582;2022-12-07T05:42:30;77883.84;;;-144.37;100.00
36258;BME280;22294;52.044;4.582;2022-12-07T05:44:55;77898.19;;;-144.37;100.00
36258;BME280;22294;52.044;4.582;2022-12-07T05:47:21;77908.41;;;-144.37;100.00
36258;BME280;22294;52.044;4.582;2022-12-07T05:49:46;77910.44;;;-144.37;100.00
36258;BME280;22294;52.044;4.582;2022-12-07T05:52:11;77910.44;;;-144.37;100.00
36258;BME280;22294;52.044;4.582;2022-12-07T05:54:37;77900.22;;;-144.37;100.00
36258;BME280;22294;52.044;4.582;2022-12-07T05:57:02;77869.53;;;-144.37;100.00
36258;BME280;22294;52.044;4.582;2022-12-07T05:59:27;77844.97;;;-144.37;100.00
36258;BME280;22294;52.044;4.582;2022-12-07T06:01:59;77847.03;;;-144.37;100.00
36258;BME280;22294;52.044;4.582;2022-12-07T06:04:27;77853.16;;;-144.37;100.00
36258;BME280;22294;52.044;4.582;2022-12-07T06:06:53;77863.38;;;-144.37;100.00
36258;BME280;22294;52.044;4.582;2022-12-07T06:09:21;77883.84;;;-144.37;100.00
36258;BME280;22294;52.044;4.582;2022-12-07T06:11:47;77894.09;;;-144.37;100.00
36258;BME280;22294;52.044;4.582;2022-12-07T06:14:31;77896.13;;;-144.37;100.00
36258;BME280;22294;52.044;4.582;2022-12-07T06:16:56;77902.25;;;-144.37;100.00
36258;BME280;22294;52.044;4.582;2022-12-07T06:19:22;77908.41;;;-144.37;100.00
36258;BME280;22294;52.044;4.582;2022-12-07T06:21:47;77918.63;;;-144.37;100.00
36258;BME280;22294;52.044;4.582;2022-12-07T06:24:13;77918.63;;;-144.37;100.00
36258;BME280;22294;52.044;4.582;2022-12-07T06:26:39;77930.91;;;-144.37;100.00
36258;BME280;22294;52.044;4.582;2022-12-07T06:29:05;77937.06;;;-144.37;100.00
36258;BME280;22294;52.044;4.582;2022-12-07T06:31:31;77947.28;;;-144.37;100.00
36258;BME280;22294;52.044;4.582;2022-12-07T06:34:00;77951.38;;;-144.37;100.00
36258;BME280;22294;52.044;4.582;2022-12-07T06:36:26;77951.38;;;-144.37;100.00
36258;BME280;22294;52.044;4.582;2022-12-07T06:38:52;77953.41;;;-144.37;100.00
36258;BME280;22294;52.044;4.582;2022-12-07T06:41:17;77963.66;;;-144.37;100.00
36258;BME280;22294;52.044;4.582;2022-12-07T06:43:43;77967.75;;;-144.37;100.00
36258;BME280;22294;52.044;4.582;2022-12-07T06:46:09;77969.78;;;-144.37;100.00
36258;BME280;22294;52.044;4.582;2022-12-07T06:48:35;77963.66;;;-144.37;100.00
36258;BME280;22294;52.044;4.582;2022-12-07T06:51:03;77904.31;;;-144.37;100.00
36258;BME280;22294;52.044;4.582;2022-12-07T06:53:28;77877.72;;;-144.37;100.00
36258;BME280;22294;52.044;4.582;2022-12-07T06:55:54;77840.88;;;-144.37;100.00
36258;BME280;22294;52.044;4.582;2022-12-07T06:58:19;77818.38;;;-144.37;100.00
36258;BME280;22294;52.044;4.582;2022-12-07T07:00:44;77812.25;;;-144.37;100.00
36258;BME280;22294;52.044;4.582;2022-12-07T07:03:10;77812.25;;;-144.37;100.00
36258;BME280;22294;52.044;4.582;2022-12-07T07:05:35;77812.25;;;-144.37;100.00
36258;BME280;22294;52.044;4.582;2022-12-07T07:08:00;77808.16;;;-144.37;100.00
36258;BME280;22294;52.044;4.582;2022-12-07T07:10:26;77816.34;;;-144.37;100.00
36258;BME280;22294;52.044;4.582;2022-12-07T07:12:51;77828.59;;;-144.37;100.00
36258;BME280;22294;52.044;4.582;2022-12-07T07:15:16;77847.03;;;-144.37;100.00
36258;BME280;22294;52.044;4.582;2022-12-07T07:17:42;77859.31;;;-144.37;100.00
36258;BME280;22294;52.044;4.582;2022-12-07T07:20:08;77875.66;;;-144.37;100.00
36258;BME280;22294;52.044;4.582;2022-12-07T07:22:33;77881.81;;;-144.37;100.00
36258;BME280;22294;52.044;4.582;2022-12-07T07:24:58;77885.91;;;-144.37;100.00
36258;BME280;22294;52.044;4.582;2022-12-07T07:27:24;77904.31;;;-144.37;100.00
36258;BME280;22294;52.044;4.582;2022-12-07T07:29:49;77892.03;;;-144.37;100.00
36258;BME280;22294;52.044;4.582;2022-12-07T07:32:14;77896.13;;;-144.37;100.00
36258;BME280;22294;52.044;4.582;2022-12-07T07:34:40;77908.41;;;-144.37;100.00
36258;BME280;22294;52.044;4.582;2022-12-07T07:37:05;77900.22;;;-144.37;100.00
36258;BME280;22294;52.044;4.582;2022-12-07T07:39:30;77894.09;;;-144.37;100.00
36258;BME280;22294;52.044;4.582;2022-12-07T07:41:56;77900.22;;;-144.37;100.00
36258;BME280;22294;52.044;4.582;2022-12-07T07:44:21;77906.34;;;-144.37;100.00
36258;BME280;22294;52.044;4.582;2022-12-07T07:46:46;77908.41;;;-144.37;100.00
36258;BME280;22294;52.044;4.582;2022-12-07T07:49:12;77908.41;;;-144.37;100.00
36258;BME280;22294;52.044;4.582;2022-12-07T07:51:37;77908.41;;;-144.37;100.00
36258;BME280;22294;52.044;4.582;2022-12-07T07:54:03;77916.59;;;-144.37;100.00
36258;BME280;22294;52.044;4.582;2022-12-07T07:56:28;77912.50;;;-144.37;100.00
36258;BME280;22294;52.044;4.582;2022-12-07T07:58:54;77896.13;;;-144.37;100.00
36258;BME280;22294;52.044;4.582;2022-12-07T08:01:20;77892.03;;;-144.37;100.00
36258;BME280;22294;52.044;4.582;2022-12-07T08:03:48;77892.03;;;-144.37;100.00
36258;BME280;22294;52.044;4.582;2022-12-07T08:06:15;77894.09;;;-144.37;100.00
36258;BME280;22294;52.044;4.582;2022-12-07T08:08:40;77904.31;;;-144.37;100.00
36258;BME280;22294;52.044;4.582;2022-12-07T08:11:06;77906.34;;;-144.37;100.00
36258;BME280;22294;52.044;4.582;2022-12-07T08:13:32;77914.53;;;-144.37;100.00
36258;BME280;22294;52.044;4.582;2022-12-07T08:15:58;77920.69;;;-144.37;100.00
36258;BME280;22294;52.044;4.582;2022-12-07T08:18:23;77924.78;;;-144.37;100.00
36258;BME280;22294;52.044;4.582;2022-12-07T08:20:48;77928.88;;;-144.37;100.00
36258;BME280;22294;52.044;4.582;2022-12-07T08:23:14;77937.06;;;-144.37;100.00
36258;BME280;22294;52.044;4.582;2022-12-07T08:25:39;77939.09;;;-144.37;100.00
36258;BME280;22294;52.044;4.582;2022-12-07T08:28:05;77920.69;;;-144.37;100.00
36258;BME280;22294;52.044;4.582;2022-12-07T08:30:31;77902.25;;;-144.37;100.00
36258;BME280;22294;52.044;4.582;2022-12-07T08:32:56;77885.91;;;-144.37;100.00
36258;BME280;22294;52.044;4.582;2022-12-07T08:35:22;77861.34;;;-144.37;100.00
36258;BME280;22294;52.044;4.582;2022-12-07T08:37:48;77847.03;;;-144.37;100.00
36258;BME280;22294;52.044;4.582;2022-12-07T08:40:14;77830.66;;;-144.37;100.00
36258;BME280;22294;52.044;4.582;2022-12-07T08:42:43;77820.44;;;-144.37;100.00
36258;BME280;22294;52.044;4.582;2022-12-07T08:45:12;77812.25;;;-144.37;100.00
36258;BME280;22294;52.044;4.582;2022-12-07T08:47:48;77806.09;;;-144.37;100.00
36258;BME280;22294;52.044;4.582;2022-12-07T08:50:14;77806.09;;;-144.37;100.00
36258;BME280;22294;52.044;4.582;2022-12-07T08:52:41;77799.97;;;-144.37;100.00
36258;BME280;22294;52.044;4.582;2022-12-07T08:55:08;77797.91;;;-144.37;100.00
36258;BME280;22294;52.044;4.582;2022-12-07T08:57:35;77781.56;;;-144.37;100.00
36258;BME280;22294;52.044;4.582;2022-12-07T09:00:02;77777.47;;;-144.37;100.00
36258;BME280;22294;52.044;4.582;2022-12-07T09:02:27;77759.03;;;-144.37;100.00
36258;BME280;22294;52.044;4.582;2022-12-07T09:04:53;77748.81;;;-144.37;100.00
36258;BME280;22294;52.044;4.582;2022-12-07T09:07:18;77746.78;;;-144.37;100.00
36258;BME280;22294;52.044;4.582;2022-12-07T09:09:43;77738.59;;;-144.37;100.00
36258;BME280;22294;52.044;4.582;2022-12-07T09:12:08;77736.53;;;-144.37;100.00
36258;BME280;22294;52.044;4.582;2022-12-07T09:14:35;77742.69;;;-144.37;100.00
36258;BME280;22294;52.044;4.582;2022-12-07T09:17:11;77744.72;;;-144.37;100.00
36258;BME280;22294;52.044;4.582;2022-12-07T09:19:37;77744.72;;;-144.37;100.00
36258;BME280;22294;52.044;4.582;2022-12-07T09:22:04;77742.69;;;-144.37;100.00
36258;BME280;22294;52.044;4.582;2022-12-07T09:24:30;77744.72;;;-144.37;100.00
36258;BME280;22294;52.044;4.582;2022-12-07T09:26:56;77746.78;;;-144.37;100.00
36258;BME280;22294;52.044;4.582;2022-12-07T09:29:21;77744.72;;;-144.37;100.00
36258;BME280;22294;52.044;4.582;2022-12-07T09:31:48;77750.88;;;-144.37;100.00
36258;BME280;22294;52.044;4.582;2022-12-07T09:34:19;77757.00;;;-144.37;100.00
36258;BME280;22294;52.044;4.582;2022-12-07T09:36:45;77767.22;;;-144.37;100.00
36258;BME280;22294;52.044;4.582;2022-12-07T09:39:11;77754.97;;;-144.37;100.00
36258;BME280;22294;52.044;4.582;2022-12-07T09:41:41;77752.91;;;-144.37;100.00
36258;BME280;22294;52.044;4.582;2022-12-07T09:44:13;77750.88;;;-144.37;100.00
36258;BME280;22294;52.044;4.582;2022-12-07T09:46:41;77744.72;;;-144.37;100.00
36258;BME280;22294;52.044;4.582;2022-12-07T09:49:20;77732.44;;;-144.37;100.00
36258;BME280;22294;52.044;4.582;2022-12-07T09:51:46;77724.25;;;-144.37;100.00
36258;BME280;22294;52.044;4.582;2022-12-07T09:54:14;77709.94;;;-144.37;100.00
36258;BME280;22294;52.044;4.582;2022-12-07T09:56:41;77695.63;;;-144.37;100.00
36258;BME280;22294;52.044;4.582;2022-12-07T09:59:13;77675.16;;;-144.37;100.00
36258;BME280;22294;52.044;4.582;2022-12-07T10:01:41;77662.88;;;-144.37;100.00
36258;BME280;22294;52.044;4.582;2022-12-07T10:04:12;77648.56;;;-144.37;100.00
36258;BME280;22294;52.044;4.582;2022-12-07T10:06:39;77638.34;;;-144.37;100.00
36258;BME280;22294;52.044;4.582;2022-12-07T10:09:12;77634.25;;;-144.37;100.00
36258;BME280;22294;52.044;4.582;2022-12-07T10:12:00;77630.16;;;-144.37;100.00
36258;BME280;22294;52.044;4.582;2022-12-07T10:14:28;77632.19;;;-144.37;100.00
36258;BME280;22294;52.044;4.582;2022-12-07T10:16:54;77634.25;;;-144.37;100.00
36258;BME280;22294;52.044;4.582;2022-12-07T10:19:31;77638.34;;;-144.37;100.00
36258;BME280;22294;52.044;4.582;2022-12-07T10:22:13;77626.06;;;-144.37;100.00
36258;BME280;22294;52.044;4.582;2022-12-07T10:24:43;77619.94;;;-144.37;100.00
36258;BME280;22294;52.044;4.582;2022-12-07T10:27:19;77601.50;;;-144.37;100.00
36258;BME280;22294;52.044;4.582;2022-12-07T10:29:51;77587.19;;;-144.37;100.00
36258;BME280;22294;52.044;4.582;2022-12-07T10:34:42;77564.69;;;-144.37;100.00
36258;BME280;22294;52.044;4.582;2022-12-07T10:39:51;77540.13;;;-144.37;100.00
36258;BME280;22294;52.044;4.582;2022-12-07T10:42:42;77515.59;;;-144.37;100.00
36258;BME280;22294;52.044;4.582;2022-12-07T10:45:24;77521.72;;;-144.37;100.00
36258;BME280;22294;52.044;4.582;2022-12-07T10:48:10;77503.31;;;-144.37;100.00
36258;BME280;22294;52.044;4.582;2022-12-07T10:51:04;77507.41;;;-144.37;100.00
36258;BME280;22294;52.044;4.582;2022-12-07T11:01:26;77499.22;;;-144.37;99.93
36258;BME280;22294;52.044;4.582;2022-12-07T11:06:36;77491.03;;;-144.37;94.34
36258;BME280;22294;52.044;4.582;2022-12-07T11:12:28;77462.38;;;-144.37;91.47
36258;BME280;22294;52.044;4.582;2022-12-07T11:15:01;77448.06;;;-144.37;92.95
36258;BME280;22294;52.044;4.582;2022-12-07T11:28:18;77417.38;;;-144.37;88.68
36258;BME280;22294;52.044;4.582;2022-12-07T11:33:31;77419.44;;;-144.37;88.61
36258;BME280;22294;52.044;4.582;2022-12-07T11:36:26;77421.47;;;-144.37;88.99
36258;BME280;22294;52.044;4.582;2022-12-07T11:41:42;77437.84;;;-144.37;89.38
36258;BME280;22294;52.044;4.582;2022-12-07T11:44:29;77446.03;;;-144.37;90.48
36258;BME280;22294;52.044;4.582;2022-12-07T11:47:02;77439.88;;;-144.37;92.27
36258;BME280;22294;52.044;4.582;2022-12-07T11:52:29;77446.03;;;-144.37;91.76
36258;BME280;22294;52.044;4.582;2022-12-07T11:54:57;77441.94;;;-144.37;92.61
36258;BME280;22294;52.044;4.582;2022-12-07T11:57:32;77462.38;;;-144.37;93.98
36258;BME280;22294;52.044;4.582;2022-12-07T12:00:05;77466.47;;;-144.37;97.44
36258;BME280;22294;52.044;4.582;2022-12-07T12:02:38;77489.00;;;-144.37;97.30
36258;BME280;22294;52.044;4.582;2022-12-07T12:05:16;77493.06;;;-144.37;97.86
36258;BME280;22294;52.044;4.582;2022-12-07T12:07:44;77509.44;;;-144.37;97.05
36258;BME280;22294;52.044;4.582;2022-12-07T12:10:40;77534.00;;;-144.37;97.00
36258;BME280;22294;52.044;4.582;2022-12-07T12:15:58;77548.31;;;-144.37;98.10
36258;BME280;22294;52.044;4.582;2022-12-07T12:21:22;77517.63;;;-144.37;96.30
36258;BME280;22294;52.044;4.582;2022-12-07T12:23:59;77507.41;;;-144.37;97.29
36258;BME280;22294;52.044;4.582;2022-12-07T12:26:31;77501.25;;;-144.37;97.11
36258;BME280;22294;52.044;4.582;2022-12-07T12:29:06;77497.16;;;-144.37;96.93
36258;BME280;22294;52.044;4.582;2022-12-07T12:31:47;77493.06;;;-144.37;96.31
36258;BME280;22294;52.044;4.582;2022-12-07T12:34:39;77495.13;;;-144.37;95.38
36258;BME280;22294;52.044;4.582;2022-12-07T12:42:54;77468.53;;;-144.37;98.29
36258;BME280;22294;52.044;4.582;2022-12-07T12:45:27;77466.47;;;-144.37;98.29
36258;BME280;22294;52.044;4.582;2022-12-07T12:50:40;77462.38;;;-144.37;96.66
36258;BME280;22294;52.044;4.582;2022-12-07T12:53:25;77441.94;;;-144.37;97.20
36258;BME280;22294;52.044;4.582;2022-12-07T12:56:29;77433.75;;;-144.37;96.00
36258;BME280;22294;52.044;4.582;2022-12-07T13:04:50;77394.88;;;-144.37;94.23
36258;BME280;22294;52.044;4.582;2022-12-07T13:20:49;77370.34;;;-144.37;93.21
36258;BME280;22294;52.044;4.582;2022-12-07T13:23:18;77374.41;;;-144.37;91.34
36258;BME280;22294;52.044;4.582;2022-12-07T13:25:51;77386.69;;;-144.37;89.67
36258;BME280;22294;52.044;4.582;2022-12-07T13:28:18;77380.56;;;-144.37;86.40
36258;BME280;22294;52.044;4.582;2022-12-07T13:30:54;77376.47;;;-144.37;87.14
36258;BME280;22294;52.044;4.582;2022-12-07T13:33:24;77366.25;;;-144.37;87.59
36258;BME280;22294;52.044;4.582;2022-12-07T13:35:56;77368.28;;;-144.37;87.51
36258;BME280;22294;52.044;4.582;2022-12-07T13:38:28;77366.25;;;-144.37;86.78
36258;BME280;22294;52.044;4.582;2022-12-07T13:41:15;77360.09;;;-144.37;86.03
36258;BME280;22294;52.044;4.582;2022-12-07T13:43:48;77353.97;;;-144.37;86.02
36258;BME280;22294;52.044;4.582;2022-12-07T13:46:13;77345.78;;;-144.37;86.07
36258;BME280;22294;52.044;4.582;2022-12-07T13:48:47;77333.50;;;-144.37;86.06
36258;BME280;22294;52.044;4.582;2022-12-07T13:51:20;77327.38;;;-144.37;83.73
36258;BME280;22294;52.044;4.582;2022-12-07T13:53:50;77327.38;;;-144.37;83.13
36258;BME280;22294;52.044;4.582;2022-12-07T13:56:17;77317.13;;;-144.37;84.88
36258;BME280;22294;52.044;4.582;2022-12-07T13:58:43;77329.41;;;-144.37;84.05
36258;BME280;22294;52.044;4.582;2022-12-07T14:01:09;77335.56;;;-144.37;84.63
36258;BME280;22294;52.044;4.582;2022-12-07T14:03:36;77372.38;;;-144.37;87.36
36258;BME280;22294;52.044;4.582;2022-12-07T14:06:15;77403.06;;;-144.37;89.46
36258;BME280;22294;52.044;4.582;2022-12-07T14:08:41;77409.19;;;-144.37;90.63
36258;BME280;22294;52.044;4.582;2022-12-07T14:11:11;77411.25;;;-144.37;91.06
36258;BME280;22294;52.044;4.582;2022-12-07T14:18:43;77394.88;;;-144.37;90.15
36258;BME280;22294;52.044;4.582;2022-12-07T14:23:34;77394.88;;;-144.37;91.31
36258;BME280;22294;52.044;4.582;2022-12-07T14:26:06;77394.88;;;-144.37;91.28
36258;BME280;22294;52.044;4.582;2022-12-07T14:28:35;77388.75;;;-144.37;91.96
36258;BME280;22294;52.044;4.582;2022-12-07T14:31:02;77388.75;;;-144.37;91.41
36258;BME280;22294;52.044;4.582;2022-12-07T14:33:28;77386.69;;;-144.37;92.57
36258;BME280;22294;52.044;4.582;2022-12-07T14:35:54;77388.75;;;-144.37;92.91
36258;BME280;22294;52.044;4.582;2022-12-07T14:38:24;77388.75;;;-144.37;92.34
36258;BME280;22294;52.044;4.582;2022-12-07T14:40:51;77392.84;;;-144.37;93.22
36258;BME280;22294;52.044;4.582;2022-12-07T14:43:18;77392.84;;;-144.37;95.14